EST,Max TemperatureF,Mean TemperatureF,Min TemperatureF,Max Dew PointF,MeanDew PointF,Min DewpointF,Max Humidity, Mean Humidity, Min Humidity, Max Sea Level PressureIn, Mean Sea Level PressureIn, Min Sea Level PressureIn, Max VisibilityMiles, Mean VisibilityMiles, Min VisibilityMiles, Max Wind SpeedMPH, Mean Wind SpeedMPH, Max Gust SpeedMPH,PrecipitationIn, CloudCover, Events, WindDirDegrees
2012-11-1,45,43,41,40,38,36,89,83,76,29.54,29.52,29.50,10,10,10,12,5,17,T,8,Rain,178
2012-11-2,43,40,36,37,34,32,86,78,70,29.70,29.61,29.52,10,10,10,12,5,16,0.00,8,,308
2012-11-3,41,38,35,36,34,30,92,84,76,29.91,29.79,29.67,10,10,9,18,10,24,T,8,,315
2012-11-4,36,34,31,34,30,24,92,84,75,30.05,29.96,29.87,10,10,3,16,8,23,T,8,Snow,309
2012-11-5,33,30,27,28,24,15,92,78,63,30.17,30.07,29.99,10,6,0,15,7,22,0.05,8,Fog-Snow,323
2012-11-6,34,26,17,18,15,12,84,63,41,30.29,30.24,30.17,10,10,2,14,4,20,0.00,2,,320
2012-11-7,32,23,14,21,17,12,92,75,58,30.29,30.18,29.97,10,9,1,9,3,13,0.00,1,,342
2012-11-8,33,31,29,30,26,17,92,75,58,30.01,29.95,29.89,10,7,2,17,9,24,0.02,8,Snow,349
2012-11-9,42,35,27,34,26,20,85,64,43,30.15,30.06,29.93,10,10,10,22,8,29,0.00,5,,312
2012-11-10,44,36,27,33,26,20,85,61,37,30.49,30.35,30.16,10,10,10,15,5,21,0.00,3,,308
2012-11-11,60,46,32,42,34,23,80,62,44,30.47,30.42,30.35,10,10,10,17,6,21,T,4,Rain,177
2012-11-12,69,53,37,50,43,36,100,69,37,30.42,30.30,30.10,10,10,7,26,11,36,0.00,1,,175
2012-11-13,60,42,24,52,36,22,100,80,59,30.53,30.28,30.06,10,8,2,21,5,30,0.69,7,Rain,324
2012-11-14,39,30,20,26,21,18,100,74,48,30.67,30.60,30.54,10,8,0,10,1,17,0.00,1,Fog,17
2012-11-15,35,27,18,25,21,17,100,78,56,30.56,30.47,30.37,10,10,2,7,1,7,0.00,0,,325
2012-11-16,39,29,19,27,22,18,100,80,59,30.54,30.42,30.33,10,6,0,9,1,12,0.00,3,Fog,311
2012-11-17,40,30,20,28,23,19,100,77,54,30.76,30.65,30.48,10,9,4,8,1,10,0.00,1,,262
2012-11-18,44,30,15,25,21,15,100,73,45,30.80,30.73,30.64,10,9,8,10,2,15,0.00,0,,168
2012-11-19,44,31,17,28,21,17,100,73,45,30.66,30.52,30.34,10,7,0,6,1,6,0.00,0,Fog,180
2012-11-20,43,31,19,29,24,18,100,77,53,30.32,30.27,30.21,10,9,6,5,0,5,0.00,3,,80
2012-11-21,50,37,23,30,25,20,100,65,29,30.33,30.28,30.23,10,9,6,9,1,10,0.00,2,,184
2012-11-22,54,37,20,29,25,19,100,66,32,30.32,30.24,30.13,10,10,8,12,1,14,0.00,0,,194
2012-11-23,54,39,23,41,32,22,100,69,38,30.10,29.81,29.61,10,10,5,16,5,23,0.05,4,Rain,180
2012-11-24,44,34,24,41,24,16,100,76,52,29.68,29.60,29.55,10,5,0,21,11,31,0.06,8,Fog-Rain-Snow,292
2012-11-25,27,22,16,18,13,9,80,63,46,29.86,29.75,29.64,10,9,3,22,9,32,T,5,Snow,297
2012-11-26,33,24,15,27,21,15,92,80,68,30.29,30.01,29.84,10,8,1,17,4,23,0.01,6,Snow,312
2012-11-27,32,26,19,25,20,15,92,79,66,30.34,30.30,30.23,10,10,10,6,0,7,0.00,8,,57
2012-11-28,34,30,25,25,23,18,100,76,51,30.28,30.20,30.13,10,9,2,12,3,18,T,8,Snow,225
2012-11-29,35,27,19,31,23,15,100,75,49,30.34,30.16,30.05,10,4,0,20,8,30,0.15,8,Fog-Snow,307
2012-11-30,19,13,6,13,6,3,91,73,54,30.65,30.54,30.36,10,10,9,12,2,15,T,3,,16